Jacques Jacob — ZDKG7 — position and weather

sailwx.info

Track history (hours):
 
Tides and Currents Weather Stations Pressure Air Temp Water Temp Dewpoint Dewpoint Depression Visibility Wind Speed Wind Dir Waves Ship Positions

Jacques Jacob

Last reported at 2016-Jun-26 04:31 UTC. Time now 2016-Jun-27 20:29 UTC.
Position N 31°08' E 032°19'.

Length 228 m; draft 13.5 m.

Type: Tanker. MMSI: 236612000.

Date/timePositionNaut miles runAvg speedWind from/ knotsBaromVisibWave heightAir tempDewpointWater temp
2016-Jun-26 04:31N 31°08' E 032°19'8 8.3
2016-Jun-26 03:33N 31°16' E 032°21'10 7.9
2016-Jun-26 02:20N 31°26' E 032°24'7 1.0
2016-Jun-25 19:23N 31°29' E 032°17'911.0
2016-Jun-25 18:33N 31°35' E 032°09'1412.9
2016-Jun-25 17:29N 31°44' E 031°57'1613.3
2016-Jun-25 16:18N 31°50' E 031°40'1113.2
2016-Jun-25 15:30N 31°53' E 031°28'1313.5
2016-Jun-25 14:33N 31°57' E 031°14'1313.2
2016-Jun-25 13:33N 32°01' E 030°59'1613.2
2016-Jun-25 12:18N 32°06' E 030°40'1013.1
2016-Jun-25 11:33N 32°10' E 030°29'1313.3
2016-Jun-25 10:33N 32°14' E 030°15'7013.4
2016-Jun-25 05:22N 32°36' E 028°56'9413.7
2016-Jun-24 22:30N 33°06' E 027°11'61813.2
2016-Jun-22 23:33N 36°19' E 015°17'1312.9
2016-Jun-22 22:33N 36°22' E 015°01'1313.0
2016-Jun-22 21:33N 36°26' E 014°46'1313.2
2016-Jun-22 20:33N 36°29' E 014°30'1313.1
2016-Jun-22 19:33N 36°33' E 014°14'1313.3
2016-Jun-22 18:33N 36°37' E 013°58'1413.7
2016-Jun-22 17:33N 36°41' E 013°42'1413.5
2016-Jun-22 16:33N 36°44' E 013°26'1313.2
2016-Jun-22 15:33N 36°48' E 013°10'1312.9
2016-Jun-22 14:33N 36°51' E 012°54'1413.0
2016-Jun-22 13:30N 36°55' E 012°38'1313.1
2016-Jun-22 12:30N 36°59' E 012°22'58212.6
2016-Jun-20 14:16N 36°47' E 000°15'5012.6
2016-Jun-20 10:20N 36°37' W 000°46'1313.0
2016-Jun-20 09:18N 36°34' W 001°02'1213.1
2016-Jun-20 08:25N 36°31' W 001°16'4912.8
2016-Jun-20 04:33N 36°21' W 002°16'1312.4
2016-Jun-20 03:29N 36°19' W 002°33'1212.4
2016-Jun-20 02:33N 36°18' W 002°47'1312.7
2016-Jun-20 01:33N 36°16' W 003°02'1212.4
2016-Jun-20 00:33N 36°15' W 003°18'1212.2
2016-Jun-19 23:33N 36°13' W 003°33'1212.3
2016-Jun-19 22:33N 36°11' W 003°48'1412.9
2016-Jun-19 21:28N 36°09' W 004°05'5413.9
2016-Jun-19 17:33N 36°02' W 005°12'10 9.8
2016-Jun-19 16:34N 36°07' W 005°22'1 0.1
2016-Jun-19 12:15N 36°07' W 005°22'2 0.2
2016-Jun-19 03:34N 36°06' W 005°22'2 1.4
2016-Jun-19 02:28N 36°06' W 005°24'0 0.1
2016-Jun-19 01:31N 36°05' W 005°24'0 0.0
2016-Jun-18 23:28N 36°06' W 005°24'0 0.1
2016-Jun-18 22:31N 36°06' W 005°24'0 0.1
2016-Jun-18 19:31N 36°05' W 005°24'0 0.1
2016-Jun-18 18:30N 36°05' W 005°24'0 0.1
2016-Jun-18 17:12N 36°05' W 005°24'0 0.1
2016-Jun-18 16:33N 36°05' W 005°24'0 0.2
2016-Jun-18 15:33N 36°06' W 005°24'0 0.2
2016-Jun-18 14:33N 36°06' W 005°24'3 3.4
2016-Jun-18 13:33N 36°03' W 005°21'4 4.3
2016-Jun-18 12:33N 35°59' W 005°22'  
Track history (hours):
 
Tides and Currents Weather Stations Pressure Air Temp Water Temp Dewpoint Dewpoint Depression Visibility Wind Speed Wind Dir Waves Ship Positions

Jacques Jacob

Last reported at 2016-Jun-26 04:31 UTC. Time now 2016-Jun-27 20:29 UTC.
Position N 31°08' E 032°19'.

Length 228 m; draft 13.5 m.

Type: Tanker. MMSI: 236612000.

Date/timePositionNaut miles runAvg speedWind from/ knotsBaromVisibWave heightAir tempDewpointWater temp
2016-Jun-26 04:31N 31°08' E 032°19'8 8.3
2016-Jun-26 03:33N 31°16' E 032°21'10 7.9
2016-Jun-26 02:20N 31°26' E 032°24'7 1.0
2016-Jun-25 19:23N 31°29' E 032°17'911.0
2016-Jun-25 18:33N 31°35' E 032°09'1412.9
2016-Jun-25 17:29N 31°44' E 031°57'1613.3
2016-Jun-25 16:18N 31°50' E 031°40'1113.2
2016-Jun-25 15:30N 31°53' E 031°28'1313.5
2016-Jun-25 14:33N 31°57' E 031°14'1313.2
2016-Jun-25 13:33N 32°01' E 030°59'1613.2
2016-Jun-25 12:18N 32°06' E 030°40'1013.1
2016-Jun-25 11:33N 32°10' E 030°29'1313.3
2016-Jun-25 10:33N 32°14' E 030°15'7013.4
2016-Jun-25 05:22N 32°36' E 028°56'9413.7
2016-Jun-24 22:30N 33°06' E 027°11'61813.2
2016-Jun-22 23:33N 36°19' E 015°17'1312.9
2016-Jun-22 22:33N 36°22' E 015°01'1313.0
2016-Jun-22 21:33N 36°26' E 014°46'1313.2
2016-Jun-22 20:33N 36°29' E 014°30'1313.1
2016-Jun-22 19:33N 36°33' E 014°14'1313.3
2016-Jun-22 18:33N 36°37' E 013°58'1413.7
2016-Jun-22 17:33N 36°41' E 013°42'1413.5
2016-Jun-22 16:33N 36°44' E 013°26'1313.2
2016-Jun-22 15:33N 36°48' E 013°10'1312.9
2016-Jun-22 14:33N 36°51' E 012°54'1413.0
2016-Jun-22 13:30N 36°55' E 012°38'1313.1
2016-Jun-22 12:30N 36°59' E 012°22'58212.6
2016-Jun-20 14:16N 36°47' E 000°15'5012.6
2016-Jun-20 10:20N 36°37' W 000°46'1313.0
2016-Jun-20 09:18N 36°34' W 001°02'1213.1
2016-Jun-20 08:25N 36°31' W 001°16'4912.8
2016-Jun-20 04:33N 36°21' W 002°16'1312.4
2016-Jun-20 03:29N 36°19' W 002°33'1212.4
2016-Jun-20 02:33N 36°18' W 002°47'1312.7
2016-Jun-20 01:33N 36°16' W 003°02'1212.4
2016-Jun-20 00:33N 36°15' W 003°18'1212.2
2016-Jun-19 23:33N 36°13' W 003°33'1212.3
2016-Jun-19 22:33N 36°11' W 003°48'1412.9
2016-Jun-19 21:28N 36°09' W 004°05'5413.9
2016-Jun-19 17:33N 36°02' W 005°12'10 9.8
2016-Jun-19 16:34N 36°07' W 005°22'1 0.1
2016-Jun-19 12:15N 36°07' W 005°22'2 0.2
2016-Jun-19 03:34N 36°06' W 005°22'2 1.4
2016-Jun-19 02:28N 36°06' W 005°24'0 0.1
2016-Jun-19 01:31N 36°05' W 005°24'0 0.0
2016-Jun-18 23:28N 36°06' W 005°24'0 0.1
2016-Jun-18 22:31N 36°06' W 005°24'0 0.1
2016-Jun-18 19:31N 36°05' W 005°24'0 0.1
2016-Jun-18 18:30N 36°05' W 005°24'0 0.1
2016-Jun-18 17:12N 36°05' W 005°24'0 0.1
2016-Jun-18 16:33N 36°05' W 005°24'0 0.2
2016-Jun-18 15:33N 36°06' W 005°24'0 0.2
2016-Jun-18 14:33N 36°06' W 005°24'3 3.4
2016-Jun-18 13:33N 36°03' W 005°21'4 4.3
2016-Jun-18 12:33N 35°59' W 005°22'  

Dump ship's entire track history